• Join FlightAware (Why Join?)
  • Login
  • US Flag 
09:30AM EDT


 

Airport Tracker/Info


-or-


 

Live Flight TrackerFlight Track Log ✈ KAP826 ✈ 31-Jan-2014 ✈ KALB - KMSS

Flight Track Log - Related Links

Times and Time Zones

All times are in EST time to prevent confusion due to time zone crossing. See the KAP826 flight status page for this flight to view local times or setup timezone preferences in your user account.

Time Position Orientation Groundspeed Altitude Reporting Facility
EST Latitude Longitude Course Direction KTS MPH feet Rate Location/Type
10:47AM 42.7406 -73.8025 180° South 116 133 900  Level Boston Center
10:47AM 42.7319 -73.8025 180° South 115 132 1,100 780 Climbing Boston Center
10:48AM 42.7164 -73.8292 232° Southwest 111 128 1,900 780 Climbing Boston Center
10:49AM 42.7222 -73.8597 285° West 102 117 2,700 840 Climbing Boston Center
10:49AM 42.7219 -73.8689 268° West 104 120 2,800 900 Climbing Boston Center
10:50AM 42.7478 -73.8756 349° North 119 137 3,600 1,020 Climbing Boston Center
10:50AM 42.7522 -73.8792 329° Northwest 118 136 3,800 720 Climbing Boston Center
10:51AM 42.7783 -73.8803 358° North 110 127 4,400 660 Climbing Boston Center
10:51AM 42.7842 -73.8814 352° North 115 132 4,500 660 Climbing Boston Center
10:52AM 42.8108 -73.8825 358° North 117 135 5,100 600 Climbing Boston Center
10:52AM 42.8219 -73.8856 349° North 119 137 5,300 660 Climbing Boston Center
10:53AM 42.8450 -73.8864 358° North 121 139 5,800 660 Climbing Boston Center
10:53AM 42.8558 -73.8881 354° North 123 142 6,000 660 Climbing Boston Center
10:54AM 42.8778 -73.8939 349° North 120 138 6,500 540 Climbing Boston Center
10:54AM 42.8914 -73.8944 358° North 126 145 6,600 480 Climbing Boston Center
10:55AM 42.9183 -73.8936 North 134 154 7,000 240 Climbing Boston Center
10:55AM 42.9358 -73.8978 350° North 144 166 6,900  Descending Boston Center
10:56AM 42.9600 -73.9033 350° North 150 173 7,000  Climbing Boston Center
10:56AM 42.9792 -73.9067 353° North 161 185 6,900  Descending Boston Center
10:57AM 43.0056 -73.9114 353° North 163 188 7,000  Climbing Boston Center
10:57AM 43.0253 -73.9136 355° North 170 196 6,900  Descending Boston Center
10:58AM 43.0525 -73.9142 359° North 168 193 7,000  Climbing Boston Center
10:58AM 43.0717 -73.9178 352° North 169 194 6,900  Descending Boston Center
10:59AM 43.0994 -73.9197 357° North 168 193 7,000  Climbing Boston Center
11:00AM 43.1458 -73.9256 355° North 166 191 6,900 -60 Descending Boston Center
11:01AM 43.1958 -73.9336 353° North 167 192 6,900  Level Boston Center
11:02AM 43.2439 -73.9383 356° North 171 197 6,900  Level Boston Center
11:03AM 43.2917 -73.9444 355° North 171 197 6,900  Level Boston Center
11:04AM 43.3381 -73.9503 355° North 169 194 6,900  Level Boston Center
11:05AM 43.3847 -73.9550 356° North 167 192 6,900  Level Boston Center
11:06AM 43.4228 -73.9653 349° North 162 186 6,900  Level Boston Center
11:07AM 43.4781 -73.9783 350° North 166 191 6,900  Level Boston Center
11:08AM 43.5253 -73.9928 347° North 171 197 6,900  Level Boston Center
11:09AM 43.5692 -74.0031 350° North 165 190 6,900  Level Boston Center
11:10AM 43.6139 -74.0122 352° North 163 188 6,900  Level Boston Center
11:11AM 43.6583 -74.0239 349° North 163 188 6,900  Level Boston Center
11:12AM 43.6983 -74.0353 348° North 158 182 6,900  Level Boston Center
11:13AM 43.7397 -74.0458 350° North 154 177 6,900  Level Boston Center
11:14AM 43.7831 -74.0575 349° North 157 181 6,900 60 Level Boston Center
11:15AM 43.8225 -74.0683 349° North 151 174 7,100 60 Climbing Boston Center
11:16AM 43.8747 -74.0814 350° North 156 180 7,100  Level Boston Center
11:17AM 43.9139 -74.0953 346° North 151 174 7,100  Level Boston Center
11:18AM 43.9481 -74.1219 331° Northwest 145 167 7,100  Level Boston Center
11:19AM 43.9847 -74.1467 334° Northwest 146 168 7,100  Level Boston Center
11:20AM 44.0203 -74.1747 330° Northwest 146 168 7,100  Level Boston Center
11:21AM 44.0567 -74.2011 332° Northwest 147 169 7,100  Level Boston Center
11:22AM 44.0894 -74.2358 323° Northwest 149 171 7,100  Level Boston Center
11:23AM 44.1217 -74.2731 320° Northwest 150 173 7,100  Level Boston Center
11:24AM 44.1561 -74.3092 323° Northwest 153 176 7,100  Level Boston Center
11:25AM 44.1894 -74.3450 322° Northwest 153 176 7,100  Level Boston Center
11:26AM 44.2308 -74.3878 323° Northwest 154 177 7,100  Level Boston Center
11:27AM 44.2642 -74.4233 323° Northwest 152 175 7,100  Level Boston Center
11:28AM 44.2961 -74.4581 322° Northwest 149 171 7,100 -60 Level Boston Center
11:29AM 44.3281 -74.4914 323° Northwest 146 168 7,000 -300 Descending Boston Center
11:30AM 44.3597 -74.5306 319° Northwest 150 173 6,600 -420 Descending Boston Center
11:32AM 44.3917 -74.5703 318° Northwest 153 176 6,200 -420 Descending Boston Center
11:33AM 44.4231 -74.6097 318° Northwest 152 175 5,800 -420 Descending Boston Center
11:34AM 44.4536 -74.6489 318° Northwest 151 174 5,400 -360 Descending Boston Center
11:35AM 44.4853 -74.6858 320° Northwest 150 173 5,100 -180 Descending Boston Center
11:36AM 44.5247 -74.7225 326° Northwest 145 167 5,100 -60 Level Boston Center
11:37AM 44.5547 -74.7567 321° Northwest 143 165 5,000 -60 Descending Boston Center
11:38AM 44.5839 -74.7908 320° Northwest 142 163 5,000  Level Boston Center
11:40AM 44.6408 -74.8543 322° Northwest  Level FlightAware Approximate